sensor_id;sensor_type;location;lat;lon;timestamp;P1;durP1;ratioP1;P2;durP2;ratioP2
944;SDS011;459;48.676;9.034;2022-09-09T00:02:18;2.33;;;1.47;;
944;SDS011;459;48.676;9.034;2022-09-09T00:04:25;2.60;;;1.50;;
944;SDS011;459;48.676;9.034;2022-09-09T00:09:25;1.90;;;1.27;;
944;SDS011;459;48.676;9.034;2022-09-09T00:11:52;1.10;;;1.00;;
944;SDS011;459;48.676;9.034;2022-09-09T00:14:42;2.17;;;1.43;;
944;SDS011;459;48.676;9.034;2022-09-09T00:17:12;1.97;;;1.20;;
944;SDS011;459;48.676;9.034;2022-09-09T00:19:44;3.17;;;1.30;;
944;SDS011;459;48.676;9.034;2022-09-09T00:22:16;1.80;;;1.50;;
944;SDS011;459;48.676;9.034;2022-09-09T00:24:43;1.50;;;1.40;;
944;SDS011;459;48.676;9.034;2022-09-09T00:27:21;2.50;;;1.30;;
944;SDS011;459;48.676;9.034;2022-09-09T00:32:47;2.40;;;1.23;;
944;SDS011;459;48.676;9.034;2022-09-09T00:35:17;1.87;;;1.20;;
944;SDS011;459;48.676;9.034;2022-09-09T00:37:43;4.10;;;1.73;;
944;SDS011;459;48.676;9.034;2022-09-09T00:40:27;1.57;;;1.43;;
944;SDS011;459;48.676;9.034;2022-09-09T00:42:59;2.40;;;1.20;;
944;SDS011;459;48.676;9.034;2022-09-09T00:48:09;1.70;;;1.60;;
944;SDS011;459;48.676;9.034;2022-09-09T00:50:42;2.23;;;1.20;;
944;SDS011;459;48.676;9.034;2022-09-09T00:53:22;3.23;;;1.47;;
944;SDS011;459;48.676;9.034;2022-09-09T01:01:32;2.60;;;1.27;;
944;SDS011;459;48.676;9.034;2022-09-09T01:03:57;3.57;;;1.63;;
944;SDS011;459;48.676;9.034;2022-09-09T01:06:28;5.70;;;1.40;;
944;SDS011;459;48.676;9.034;2022-09-09T01:11:23;2.40;;;1.57;;
944;SDS011;459;48.676;9.034;2022-09-09T01:13:53;2.93;;;1.50;;
944;SDS011;459;48.676;9.034;2022-09-09T01:16:20;1.47;;;1.33;;
944;SDS011;459;48.676;9.034;2022-09-09T01:18:46;2.73;;;1.40;;
944;SDS011;459;48.676;9.034;2022-09-09T01:26:12;1.60;;;1.50;;
944;SDS011;459;48.676;9.034;2022-09-09T01:28:39;3.93;;;1.60;;
944;SDS011;459;48.676;9.034;2022-09-09T01:31:05;2.50;;;1.80;;
944;SDS011;459;48.676;9.034;2022-09-09T01:33:31;1.50;;;1.40;;
944;SDS011;459;48.676;9.034;2022-09-09T01:38:48;2.20;;;1.30;;
944;SDS011;459;48.676;9.034;2022-09-09T01:41:13;2.73;;;1.60;;
944;SDS011;459;48.676;9.034;2022-09-09T01:43:38;2.37;;;1.77;;
944;SDS011;459;48.676;9.034;2022-09-09T01:46:04;3.53;;;1.60;;
944;SDS011;459;48.676;9.034;2022-09-09T01:48:29;4.00;;;1.43;;
944;SDS011;459;48.676;9.034;2022-09-09T01:50:55;2.00;;;1.30;;
944;SDS011;459;48.676;9.034;2022-09-09T01:53:21;3.27;;;1.23;;
944;SDS011;459;48.676;9.034;2022-09-09T01:55:54;3.83;;;1.73;;
944;SDS011;459;48.676;9.034;2022-09-09T02:03:36;3.80;;;1.60;;
944;SDS011;459;48.676;9.034;2022-09-09T02:08:38;2.03;;;1.33;;
944;SDS011;459;48.676;9.034;2022-09-09T02:11:15;5.37;;;1.60;;
944;SDS011;459;48.676;9.034;2022-09-09T02:13:40;4.23;;;1.80;;
944;SDS011;459;48.676;9.034;2022-09-09T02:16:07;6.37;;;1.80;;
944;SDS011;459;48.676;9.034;2022-09-09T02:18:53;2.10;;;1.20;;
944;SDS011;459;48.676;9.034;2022-09-09T02:21:20;1.80;;;1.37;;
944;SDS011;459;48.676;9.034;2022-09-09T02:23:47;3.00;;;1.70;;
944;SDS011;459;48.676;9.034;2022-09-09T02:26:12;2.40;;;1.23;;
944;SDS011;459;48.676;9.034;2022-09-09T02:28:44;4.43;;;2.33;;
944;SDS011;459;48.676;9.034;2022-09-09T02:31:10;2.10;;;1.30;;
944;SDS011;459;48.676;9.034;2022-09-09T02:33:37;1.97;;;1.20;;
944;SDS011;459;48.676;9.034;2022-09-09T02:36:04;3.40;;;2.07;;
944;SDS011;459;48.676;9.034;2022-09-09T02:38:33;1.63;;;1.30;;
944;SDS011;459;48.676;9.034;2022-09-09T02:41:00;4.10;;;1.30;;
944;SDS011;459;48.676;9.034;2022-09-09T02:43:30;1.93;;;1.30;;
944;SDS011;459;48.676;9.034;2022-09-09T02:48:31;1.90;;;1.07;;
944;SDS011;459;48.676;9.034;2022-09-09T02:51:08;3.07;;;1.30;;
944;SDS011;459;48.676;9.034;2022-09-09T02:56:04;1.20;;;1.10;;
944;SDS011;459;48.676;9.034;2022-09-09T02:58:30;3.20;;;2.00;;
944;SDS011;459;48.676;9.034;2022-09-09T03:00:56;4.80;;;1.83;;
944;SDS011;459;48.676;9.034;2022-09-09T03:03:22;2.20;;;1.43;;
944;SDS011;459;48.676;9.034;2022-09-09T03:05:48;1.30;;;1.20;;
944;SDS011;459;48.676;9.034;2022-09-09T03:08:14;1.60;;;1.30;;
944;SDS011;459;48.676;9.034;2022-09-09T03:10:39;2.40;;;1.33;;
944;SDS011;459;48.676;9.034;2022-09-09T03:13:05;3.70;;;1.20;;
944;SDS011;459;48.676;9.034;2022-09-09T03:15:30;1.80;;;1.13;;
944;SDS011;459;48.676;9.034;2022-09-09T03:17:56;1.40;;;1.27;;
944;SDS011;459;48.676;9.034;2022-09-09T03:20:22;2.57;;;0.97;;
944;SDS011;459;48.676;9.034;2022-09-09T03:22:47;1.53;;;1.13;;
944;SDS011;459;48.676;9.034;2022-09-09T03:25:12;1.57;;;1.10;;
944;SDS011;459;48.676;9.034;2022-09-09T03:27:38;2.30;;;0.90;;
944;SDS011;459;48.676;9.034;2022-09-09T03:30:03;2.53;;;1.13;;
944;SDS011;459;48.676;9.034;2022-09-09T03:32:28;4.53;;;1.77;;
944;SDS011;459;48.676;9.034;2022-09-09T03:34:54;1.90;;;1.40;;
944;SDS011;459;48.676;9.034;2022-09-09T03:37:19;1.57;;;0.80;;
944;SDS011;459;48.676;9.034;2022-09-09T03:39:44;1.53;;;0.90;;
944;SDS011;459;48.676;9.034;2022-09-09T03:42:12;1.27;;;1.07;;
944;SDS011;459;48.676;9.034;2022-09-09T03:44:39;1.70;;;0.90;;
944;SDS011;459;48.676;9.034;2022-09-09T03:47:04;3.50;;;2.07;;
944;SDS011;459;48.676;9.034;2022-09-09T03:49:32;1.47;;;1.20;;
944;SDS011;459;48.676;9.034;2022-09-09T03:51:57;2.70;;;1.30;;
944;SDS011;459;48.676;9.034;2022-09-09T03:54:24;1.37;;;1.17;;
944;SDS011;459;48.676;9.034;2022-09-09T03:56:49;2.37;;;1.30;;
944;SDS011;459;48.676;9.034;2022-09-09T03:59:15;2.07;;;0.90;;
944;SDS011;459;48.676;9.034;2022-09-09T04:01:40;1.90;;;1.10;;
944;SDS011;459;48.676;9.034;2022-09-09T04:04:06;1.20;;;1.10;;
944;SDS011;459;48.676;9.034;2022-09-09T04:06:31;1.90;;;1.33;;
944;SDS011;459;48.676;9.034;2022-09-09T04:08:56;2.67;;;1.50;;
944;SDS011;459;48.676;9.034;2022-09-09T04:11:21;1.30;;;1.20;;
944;SDS011;459;48.676;9.034;2022-09-09T04:13:46;3.17;;;1.20;;
944;SDS011;459;48.676;9.034;2022-09-09T04:16:12;5.47;;;1.40;;
944;SDS011;459;48.676;9.034;2022-09-09T04:18:40;4.20;;;2.67;;
944;SDS011;459;48.676;9.034;2022-09-09T04:21:06;1.50;;;1.40;;
944;SDS011;459;48.676;9.034;2022-09-09T04:23:32;3.30;;;1.43;;
944;SDS011;459;48.676;9.034;2022-09-09T04:25:59;1.77;;;1.20;;
944;SDS011;459;48.676;9.034;2022-09-09T04:28:25;1.87;;;1.50;;
944;SDS011;459;48.676;9.034;2022-09-09T04:30:51;4.73;;;1.83;;
944;SDS011;459;48.676;9.034;2022-09-09T04:33:17;3.53;;;1.73;;
944;SDS011;459;48.676;9.034;2022-09-09T04:35:46;2.97;;;1.53;;
944;SDS011;459;48.676;9.034;2022-09-09T04:38:12;2.50;;;1.80;;
944;SDS011;459;48.676;9.034;2022-09-09T04:40:37;4.57;;;2.27;;
944;SDS011;459;48.676;9.034;2022-09-09T04:43:05;1.77;;;1.57;;
944;SDS011;459;48.676;9.034;2022-09-09T04:45:30;4.57;;;1.57;;
944;SDS011;459;48.676;9.034;2022-09-09T04:47:55;1.50;;;1.40;;
944;SDS011;459;48.676;9.034;2022-09-09T04:50:21;2.03;;;1.83;;
944;SDS011;459;48.676;9.034;2022-09-09T04:52:46;1.53;;;1.40;;
944;SDS011;459;48.676;9.034;2022-09-09T04:55:11;2.83;;;1.90;;
944;SDS011;459;48.676;9.034;2022-09-09T04:57:38;4.23;;;1.60;;
944;SDS011;459;48.676;9.034;2022-09-09T05:00:03;2.97;;;1.43;;
944;SDS011;459;48.676;9.034;2022-09-09T05:02:28;3.40;;;3.20;;
944;SDS011;459;48.676;9.034;2022-09-09T05:04:55;3.23;;;1.40;;
944;SDS011;459;48.676;9.034;2022-09-09T05:07:21;2.13;;;1.70;;
944;SDS011;459;48.676;9.034;2022-09-09T05:09:46;2.27;;;1.43;;
944;SDS011;459;48.676;9.034;2022-09-09T05:12:13;2.00;;;1.60;;
944;SDS011;459;48.676;9.034;2022-09-09T05:14:38;2.40;;;1.40;;
944;SDS011;459;48.676;9.034;2022-09-09T05:17:03;3.20;;;1.43;;
944;SDS011;459;48.676;9.034;2022-09-09T05:19:29;2.40;;;1.57;;
944;SDS011;459;48.676;9.034;2022-09-09T05:21:56;2.70;;;1.63;;
944;SDS011;459;48.676;9.034;2022-09-09T05:24:21;2.23;;;1.70;;
944;SDS011;459;48.676;9.034;2022-09-09T05:26:48;2.57;;;1.70;;
944;SDS011;459;48.676;9.034;2022-09-09T05:29:13;3.20;;;1.80;;
944;SDS011;459;48.676;9.034;2022-09-09T05:31:38;3.80;;;1.60;;
944;SDS011;459;48.676;9.034;2022-09-09T05:34:04;5.27;;;1.93;;
944;SDS011;459;48.676;9.034;2022-09-09T05:36:29;7.00;;;2.10;;
944;SDS011;459;48.676;9.034;2022-09-09T05:38:54;3.77;;;1.67;;
944;SDS011;459;48.676;9.034;2022-09-09T05:41:20;2.43;;;1.50;;
944;SDS011;459;48.676;9.034;2022-09-09T05:43:45;2.43;;;1.57;;
944;SDS011;459;48.676;9.034;2022-09-09T05:46:13;2.70;;;1.60;;
944;SDS011;459;48.676;9.034;2022-09-09T05:48:39;2.77;;;1.53;;
944;SDS011;459;48.676;9.034;2022-09-09T05:51:05;2.67;;;1.70;;
944;SDS011;459;48.676;9.034;2022-09-09T05:53:34;1.90;;;1.50;;
944;SDS011;459;48.676;9.034;2022-09-09T05:56:00;2.40;;;1.60;;
944;SDS011;459;48.676;9.034;2022-09-09T05:58:25;2.20;;;1.50;;
944;SDS011;459;48.676;9.034;2022-09-09T06:00:50;2.27;;;1.33;;
944;SDS011;459;48.676;9.034;2022-09-09T06:03:15;6.40;;;1.77;;
944;SDS011;459;48.676;9.034;2022-09-09T06:05:41;1.73;;;1.50;;
944;SDS011;459;48.676;9.034;2022-09-09T06:08:07;8.90;;;1.83;;
944;SDS011;459;48.676;9.034;2022-09-09T06:10:32;2.77;;;1.63;;
944;SDS011;459;48.676;9.034;2022-09-09T06:12:59;4.53;;;1.97;;
944;SDS011;459;48.676;9.034;2022-09-09T06:15:24;1.73;;;1.60;;
944;SDS011;459;48.676;9.034;2022-09-09T06:17:53;2.30;;;1.80;;
944;SDS011;459;48.676;9.034;2022-09-09T06:20:19;4.00;;;1.40;;
944;SDS011;459;48.676;9.034;2022-09-09T06:22:45;2.57;;;1.80;;
944;SDS011;459;48.676;9.034;2022-09-09T06:25:11;2.93;;;1.77;;
944;SDS011;459;48.676;9.034;2022-09-09T06:27:37;2.80;;;1.50;;
944;SDS011;459;48.676;9.034;2022-09-09T06:30:02;1.73;;;1.63;;
944;SDS011;459;48.676;9.034;2022-09-09T06:32:28;2.77;;;1.90;;
944;SDS011;459;48.676;9.034;2022-09-09T06:34:53;3.07;;;1.77;;
944;SDS011;459;48.676;9.034;2022-09-09T06:37:19;1.90;;;1.60;;
944;SDS011;459;48.676;9.034;2022-09-09T06:39:44;1.47;;;1.37;;
944;SDS011;459;48.676;9.034;2022-09-09T06:42:09;2.50;;;1.60;;
944;SDS011;459;48.676;9.034;2022-09-09T06:44:35;3.43;;;1.40;;
944;SDS011;459;48.676;9.034;2022-09-09T06:47:01;4.33;;;1.73;;
944;SDS011;459;48.676;9.034;2022-09-09T06:49:26;3.87;;;1.30;;
944;SDS011;459;48.676;9.034;2022-09-09T06:51:51;4.23;;;1.80;;
944;SDS011;459;48.676;9.034;2022-09-09T06:54:17;3.43;;;1.50;;
944;SDS011;459;48.676;9.034;2022-09-09T06:56:42;3.27;;;1.50;;
944;SDS011;459;48.676;9.034;2022-09-09T06:59:08;1.83;;;1.60;;
944;SDS011;459;48.676;9.034;2022-09-09T07:01:41;3.20;;;2.53;;
944;SDS011;459;48.676;9.034;2022-09-09T07:04:07;3.20;;;1.63;;
944;SDS011;459;48.676;9.034;2022-09-09T07:06:35;4.67;;;2.00;;
944;SDS011;459;48.676;9.034;2022-09-09T07:09:02;4.70;;;1.50;;
944;SDS011;459;48.676;9.034;2022-09-09T07:11:29;2.30;;;1.70;;
944;SDS011;459;48.676;9.034;2022-09-09T07:13:55;3.03;;;1.70;;
944;SDS011;459;48.676;9.034;2022-09-09T07:16:21;2.23;;;1.97;;
944;SDS011;459;48.676;9.034;2022-09-09T07:18:50;3.53;;;1.90;;
944;SDS011;459;48.676;9.034;2022-09-09T07:21:15;3.43;;;1.97;;
944;SDS011;459;48.676;9.034;2022-09-09T07:23:41;3.90;;;1.70;;
944;SDS011;459;48.676;9.034;2022-09-09T07:26:10;4.37;;;1.47;;
944;SDS011;459;48.676;9.034;2022-09-09T07:28:35;2.40;;;1.50;;
944;SDS011;459;48.676;9.034;2022-09-09T07:31:01;2.63;;;2.40;;
944;SDS011;459;48.676;9.034;2022-09-09T07:33:30;1.80;;;1.50;;
944;SDS011;459;48.676;9.034;2022-09-09T07:36:02;1.40;;;1.30;;
944;SDS011;459;48.676;9.034;2022-09-09T07:38:27;3.63;;;1.60;;
944;SDS011;459;48.676;9.034;2022-09-09T07:41:01;4.23;;;1.83;;
944;SDS011;459;48.676;9.034;2022-09-09T07:43:27;1.30;;;1.00;;
944;SDS011;459;48.676;9.034;2022-09-09T07:46:11;1.77;;;1.33;;
944;SDS011;459;48.676;9.034;2022-09-09T07:48:37;3.90;;;1.47;;
944;SDS011;459;48.676;9.034;2022-09-09T07:51:06;3.50;;;1.70;;
944;SDS011;459;48.676;9.034;2022-09-09T07:53:32;1.67;;;1.33;;
944;SDS011;459;48.676;9.034;2022-09-09T07:56:04;1.97;;;1.23;;
944;SDS011;459;48.676;9.034;2022-09-09T07:58:29;2.73;;;1.50;;
944;SDS011;459;48.676;9.034;2022-09-09T08:00:54;1.63;;;1.40;;
944;SDS011;459;48.676;9.034;2022-09-09T08:03:19;2.33;;;1.77;;
944;SDS011;459;48.676;9.034;2022-09-09T08:05:46;2.73;;;1.30;;
944;SDS011;459;48.676;9.034;2022-09-09T08:08:12;2.40;;;1.20;;
944;SDS011;459;48.676;9.034;2022-09-09T08:10:37;3.43;;;1.53;;
944;SDS011;459;48.676;9.034;2022-09-09T08:13:02;2.20;;;1.30;;
944;SDS011;459;48.676;9.034;2022-09-09T08:15:27;2.60;;;1.30;;
944;SDS011;459;48.676;9.034;2022-09-09T08:17:53;2.10;;;1.33;;
944;SDS011;459;48.676;9.034;2022-09-09T08:20:18;4.13;;;1.80;;
944;SDS011;459;48.676;9.034;2022-09-09T08:22:43;1.83;;;1.40;;
944;SDS011;459;48.676;9.034;2022-09-09T08:25:09;4.33;;;1.53;;
944;SDS011;459;48.676;9.034;2022-09-09T08:27:35;3.00;;;1.20;;
944;SDS011;459;48.676;9.034;2022-09-09T08:30:00;1.63;;;1.43;;
944;SDS011;459;48.676;9.034;2022-09-09T08:32:25;1.30;;;1.00;;
944;SDS011;459;48.676;9.034;2022-09-09T08:34:51;2.20;;;1.10;;
944;SDS011;459;48.676;9.034;2022-09-09T08:37:16;3.13;;;2.27;;
944;SDS011;459;48.676;9.034;2022-09-09T08:39:41;1.77;;;1.30;;
944;SDS011;459;48.676;9.034;2022-09-09T08:42:27;8.40;;;1.97;;
944;SDS011;459;48.676;9.034;2022-09-09T08:55:47;1.23;;;1.00;;
944;SDS011;459;48.676;9.034;2022-09-09T08:58:14;3.30;;;1.47;;
944;SDS011;459;48.676;9.034;2022-09-09T09:03:30;3.40;;;1.73;;
944;SDS011;459;48.676;9.034;2022-09-09T09:06:06;4.20;;;2.10;;
944;SDS011;459;48.676;9.034;2022-09-09T09:11:06;2.80;;;1.30;;
944;SDS011;459;48.676;9.034;2022-09-09T09:13:38;4.77;;;1.70;;
944;SDS011;459;48.676;9.034;2022-09-09T09:16:17;4.03;;;2.20;;
944;SDS011;459;48.676;9.034;2022-09-09T09:18:44;4.93;;;1.43;;
944;SDS011;459;48.676;9.034;2022-09-09T09:21:19;4.07;;;1.90;;
944;SDS011;459;48.676;9.034;2022-09-09T09:24:11;2.43;;;1.60;;
944;SDS011;459;48.676;9.034;2022-09-09T09:26:35;2.13;;;1.20;;
944;SDS011;459;48.676;9.034;2022-09-09T09:29:03;3.63;;;1.57;;
944;SDS011;459;48.676;9.034;2022-09-09T09:31:33;3.40;;;1.30;;
944;SDS011;459;48.676;9.034;2022-09-09T09:33:58;3.03;;;1.57;;
944;SDS011;459;48.676;9.034;2022-09-09T09:36:34;2.00;;;1.50;;
944;SDS011;459;48.676;9.034;2022-09-09T09:39:00;4.23;;;1.60;;
944;SDS011;459;48.676;9.034;2022-09-09T09:41:43;3.57;;;1.93;;
944;SDS011;459;48.676;9.034;2022-09-09T09:49:31;3.27;;;2.20;;
944;SDS011;459;48.676;9.034;2022-09-09T09:52:03;1.87;;;1.70;;
944;SDS011;459;48.676;9.034;2022-09-09T09:54:30;3.23;;;1.80;;
944;SDS011;459;48.676;9.034;2022-09-09T09:56:56;6.23;;;2.07;;
944;SDS011;459;48.676;9.034;2022-09-09T09:59:35;6.57;;;2.17;;
944;SDS011;459;48.676;9.034;2022-09-09T10:02:14;3.87;;;2.00;;
944;SDS011;459;48.676;9.034;2022-09-09T10:04:39;6.73;;;2.50;;
944;SDS011;459;48.676;9.034;2022-09-09T10:07:12;3.53;;;1.60;;
944;SDS011;459;48.676;9.034;2022-09-09T10:09:37;5.70;;;2.50;;
944;SDS011;459;48.676;9.034;2022-09-09T10:17:13;2.93;;;2.63;;
944;SDS011;459;48.676;9.034;2022-09-09T10:19:42;3.10;;;1.60;;
944;SDS011;459;48.676;9.034;2022-09-09T10:22:25;2.53;;;2.10;;
944;SDS011;459;48.676;9.034;2022-09-09T10:27:29;4.77;;;1.80;;
944;SDS011;459;48.676;9.034;2022-09-09T10:40:58;4.37;;;2.27;;
944;SDS011;459;48.676;9.034;2022-09-09T10:48:44;3.77;;;1.93;;
944;SDS011;459;48.676;9.034;2022-09-09T10:56:30;6.00;;;2.10;;
944;SDS011;459;48.676;9.034;2022-09-09T10:59:00;4.70;;;1.60;;
944;SDS011;459;48.676;9.034;2022-09-09T11:01:29;7.90;;;1.50;;
944;SDS011;459;48.676;9.034;2022-09-09T11:06:49;6.70;;;2.20;;
944;SDS011;459;48.676;9.034;2022-09-09T11:09:18;1.90;;;1.00;;
944;SDS011;459;48.676;9.034;2022-09-09T11:11:46;5.43;;;1.67;;
944;SDS011;459;48.676;9.034;2022-09-09T11:14:31;2.30;;;0.97;;
944;SDS011;459;48.676;9.034;2022-09-09T11:16:59;7.43;;;1.27;;
944;SDS011;459;48.676;9.034;2022-09-09T11:21:59;1.87;;;1.10;;
944;SDS011;459;48.676;9.034;2022-09-09T11:24:38;1.80;;;0.97;;
944;SDS011;459;48.676;9.034;2022-09-09T11:27:09;1.10;;;0.80;;
944;SDS011;459;48.676;9.034;2022-09-09T11:37:50;1.23;;;0.87;;
944;SDS011;459;48.676;9.034;2022-09-09T11:42:46;1.50;;;0.80;;
944;SDS011;459;48.676;9.034;2022-09-09T11:45:20;1.07;;;0.50;;
944;SDS011;459;48.676;9.034;2022-09-09T11:47:52;1.03;;;0.50;;
944;SDS011;459;48.676;9.034;2022-09-09T11:52:44;0.93;;;0.60;;
944;SDS011;459;48.676;9.034;2022-09-09T11:55:26;1.20;;;0.40;;
944;SDS011;459;48.676;9.034;2022-09-09T11:58:27;0.90;;;0.50;;
944;SDS011;459;48.676;9.034;2022-09-09T12:00:47;1.97;;;0.70;;
944;SDS011;459;48.676;9.034;2022-09-09T12:05:56;1.50;;;0.40;;
944;SDS011;459;48.676;9.034;2022-09-09T12:08:25;1.63;;;0.50;;
944;SDS011;459;48.676;9.034;2022-09-09T12:10:53;1.10;;;0.63;;
944;SDS011;459;48.676;9.034;2022-09-09T12:13:23;0.63;;;0.37;;
944;SDS011;459;48.676;9.034;2022-09-09T12:15:50;1.00;;;0.43;;
944;SDS011;459;48.676;9.034;2022-09-09T12:18:25;1.40;;;0.70;;
944;SDS011;459;48.676;9.034;2022-09-09T12:28:40;1.57;;;0.80;;
944;SDS011;459;48.676;9.034;2022-09-09T12:33:39;0.60;;;0.50;;
944;SDS011;459;48.676;9.034;2022-09-09T12:36:11;1.07;;;0.63;;
944;SDS011;459;48.676;9.034;2022-09-09T12:38:39;2.40;;;0.73;;
944;SDS011;459;48.676;9.034;2022-09-09T12:41:04;2.57;;;1.17;;
944;SDS011;459;48.676;9.034;2022-09-09T12:43:30;0.90;;;0.60;;
944;SDS011;459;48.676;9.034;2022-09-09T12:45:56;2.50;;;0.80;;
944;SDS011;459;48.676;9.034;2022-09-09T12:48:35;1.50;;;0.60;;
944;SDS011;459;48.676;9.034;2022-09-09T12:51:01;0.90;;;0.70;;
944;SDS011;459;48.676;9.034;2022-09-09T12:53:37;2.63;;;1.07;;
944;SDS011;459;48.676;9.034;2022-09-09T12:56:07;3.43;;;0.60;;
944;SDS011;459;48.676;9.034;2022-09-09T12:58:33;2.87;;;0.90;;
944;SDS011;459;48.676;9.034;2022-09-09T13:00:59;0.90;;;0.60;;
944;SDS011;459;48.676;9.034;2022-09-09T13:03:25;2.43;;;0.60;;
944;SDS011;459;48.676;9.034;2022-09-09T13:05:51;2.30;;;0.80;;
944;SDS011;459;48.676;9.034;2022-09-09T13:08:17;1.53;;;0.50;;
944;SDS011;459;48.676;9.034;2022-09-09T13:13:25;0.87;;;0.73;;
944;SDS011;459;48.676;9.034;2022-09-09T13:15:54;0.73;;;0.60;;
944;SDS011;459;48.676;9.034;2022-09-09T13:18:21;0.80;;;0.60;;
944;SDS011;459;48.676;9.034;2022-09-09T13:20:48;2.73;;;0.60;;
944;SDS011;459;48.676;9.034;2022-09-09T13:23:13;1.47;;;0.67;;
944;SDS011;459;48.676;9.034;2022-09-09T13:25:39;1.90;;;0.57;;
944;SDS011;459;48.676;9.034;2022-09-09T13:28:05;1.50;;;0.60;;
944;SDS011;459;48.676;9.034;2022-09-09T13:30:43;1.40;;;0.77;;
944;SDS011;459;48.676;9.034;2022-09-09T13:33:21;4.30;;;0.50;;
944;SDS011;459;48.676;9.034;2022-09-09T13:35:55;1.97;;;0.70;;
944;SDS011;459;48.676;9.034;2022-09-09T13:38:21;1.60;;;0.93;;
944;SDS011;459;48.676;9.034;2022-09-09T13:43:46;1.70;;;1.00;;
944;SDS011;459;48.676;9.034;2022-09-09T13:48:56;2.47;;;0.80;;
944;SDS011;459;48.676;9.034;2022-09-09T13:51:26;2.90;;;0.70;;
944;SDS011;459;48.676;9.034;2022-09-09T13:53:53;4.27;;;0.80;;
944;SDS011;459;48.676;9.034;2022-09-09T13:56:18;2.60;;;0.70;;
944;SDS011;459;48.676;9.034;2022-09-09T13:58:43;1.17;;;0.60;;
944;SDS011;459;48.676;9.034;2022-09-09T14:01:08;2.30;;;0.70;;
944;SDS011;459;48.676;9.034;2022-09-09T14:03:36;1.13;;;0.50;;
944;SDS011;459;48.676;9.034;2022-09-09T14:06:02;1.23;;;0.60;;
944;SDS011;459;48.676;9.034;2022-09-09T14:08:27;0.70;;;0.33;;
944;SDS011;459;48.676;9.034;2022-09-09T14:11:01;0.73;;;0.47;;
944;SDS011;459;48.676;9.034;2022-09-09T14:13:27;0.97;;;0.60;;
944;SDS011;459;48.676;9.034;2022-09-09T14:15:52;2.30;;;0.60;;
944;SDS011;459;48.676;9.034;2022-09-09T14:18:18;1.10;;;0.50;;
944;SDS011;459;48.676;9.034;2022-09-09T14:20:44;1.10;;;0.50;;
944;SDS011;459;48.676;9.034;2022-09-09T14:23:10;0.97;;;0.50;;
944;SDS011;459;48.676;9.034;2022-09-09T14:25:35;2.20;;;0.60;;
944;SDS011;459;48.676;9.034;2022-09-09T14:28:01;1.03;;;0.60;;
944;SDS011;459;48.676;9.034;2022-09-09T14:30:27;1.07;;;0.50;;
944;SDS011;459;48.676;9.034;2022-09-09T14:32:52;2.60;;;0.50;;
944;SDS011;459;48.676;9.034;2022-09-09T14:35:17;1.90;;;0.67;;
944;SDS011;459;48.676;9.034;2022-09-09T14:37:43;2.77;;;1.43;;
944;SDS011;459;48.676;9.034;2022-09-09T14:40:09;0.67;;;0.40;;
944;SDS011;459;48.676;9.034;2022-09-09T14:42:36;1.47;;;0.50;;
944;SDS011;459;48.676;9.034;2022-09-09T14:45:01;1.83;;;0.90;;
944;SDS011;459;48.676;9.034;2022-09-09T14:47:26;2.43;;;0.73;;
944;SDS011;459;48.676;9.034;2022-09-09T14:49:52;1.70;;;0.80;;
944;SDS011;459;48.676;9.034;2022-09-09T14:52:18;1.10;;;0.40;;
944;SDS011;459;48.676;9.034;2022-09-09T14:54:43;3.10;;;0.70;;
944;SDS011;459;48.676;9.034;2022-09-09T14:57:08;2.20;;;0.70;;
944;SDS011;459;48.676;9.034;2022-09-09T14:59:33;1.97;;;0.70;;
944;SDS011;459;48.676;9.034;2022-09-09T15:01:59;1.67;;;0.80;;
944;SDS011;459;48.676;9.034;2022-09-09T15:04:28;1.67;;;0.67;;
944;SDS011;459;48.676;9.034;2022-09-09T15:06:54;1.20;;;0.50;;
944;SDS011;459;48.676;9.034;2022-09-09T15:09:19;0.90;;;0.57;;
944;SDS011;459;48.676;9.034;2022-09-09T15:11:44;1.97;;;0.80;;
944;SDS011;459;48.676;9.034;2022-09-09T15:14:10;0.87;;;0.53;;
944;SDS011;459;48.676;9.034;2022-09-09T15:16:37;2.23;;;0.50;;
944;SDS011;459;48.676;9.034;2022-09-09T15:19:02;2.50;;;0.70;;
944;SDS011;459;48.676;9.034;2022-09-09T15:21:29;1.33;;;0.60;;
944;SDS011;459;48.676;9.034;2022-09-09T15:23:55;1.57;;;0.70;;
944;SDS011;459;48.676;9.034;2022-09-09T15:26:20;1.10;;;0.60;;
944;SDS011;459;48.676;9.034;2022-09-09T15:28:45;1.87;;;0.80;;
944;SDS011;459;48.676;9.034;2022-09-09T15:31:16;1.47;;;0.50;;
944;SDS011;459;48.676;9.034;2022-09-09T15:38:38;1.80;;;0.67;;
944;SDS011;459;48.676;9.034;2022-09-09T15:41:03;2.30;;;0.90;;
944;SDS011;459;48.676;9.034;2022-09-09T15:43:29;2.13;;;1.13;;
944;SDS011;459;48.676;9.034;2022-09-09T15:45:57;2.60;;;0.77;;
944;SDS011;459;48.676;9.034;2022-09-09T15:48:31;1.53;;;0.90;;
944;SDS011;459;48.676;9.034;2022-09-09T15:51:01;2.13;;;0.67;;
944;SDS011;459;48.676;9.034;2022-09-09T15:53:27;3.33;;;0.90;;
944;SDS011;459;48.676;9.034;2022-09-09T15:55:54;1.43;;;0.70;;
944;SDS011;459;48.676;9.034;2022-09-09T15:58:20;1.20;;;1.10;;
944;SDS011;459;48.676;9.034;2022-09-09T16:00:45;1.30;;;0.83;;
944;SDS011;459;48.676;9.034;2022-09-09T16:03:10;1.60;;;0.70;;
944;SDS011;459;48.676;9.034;2022-09-09T16:05:37;2.00;;;0.80;;
944;SDS011;459;48.676;9.034;2022-09-09T16:08:02;2.23;;;1.30;;
944;SDS011;459;48.676;9.034;2022-09-09T16:10:29;2.47;;;1.63;;
944;SDS011;459;48.676;9.034;2022-09-09T16:12:55;1.33;;;0.60;;
944;SDS011;459;48.676;9.034;2022-09-09T16:15:21;1.63;;;1.33;;
944;SDS011;459;48.676;9.034;2022-09-09T16:17:48;1.83;;;0.90;;
944;SDS011;459;48.676;9.034;2022-09-09T16:20:13;2.83;;;1.30;;
944;SDS011;459;48.676;9.034;2022-09-09T16:22:39;0.80;;;0.60;;
944;SDS011;459;48.676;9.034;2022-09-09T16:25:05;5.63;;;1.77;;
944;SDS011;459;48.676;9.034;2022-09-09T16:27:30;1.33;;;0.83;;
944;SDS011;459;48.676;9.034;2022-09-09T16:29:55;1.10;;;0.60;;
944;SDS011;459;48.676;9.034;2022-09-09T16:32:21;3.40;;;0.67;;
944;SDS011;459;48.676;9.034;2022-09-09T16:34:47;2.27;;;0.70;;
944;SDS011;459;48.676;9.034;2022-09-09T16:37:12;3.67;;;0.90;;
944;SDS011;459;48.676;9.034;2022-09-09T16:39:37;2.93;;;0.70;;
944;SDS011;459;48.676;9.034;2022-09-09T16:42:02;0.90;;;0.60;;
944;SDS011;459;48.676;9.034;2022-09-09T16:44:29;1.20;;;0.60;;
944;SDS011;459;48.676;9.034;2022-09-09T16:46:55;4.33;;;0.73;;
944;SDS011;459;48.676;9.034;2022-09-09T16:49:20;1.10;;;0.50;;
944;SDS011;459;48.676;9.034;2022-09-09T16:51:46;1.60;;;0.60;;
944;SDS011;459;48.676;9.034;2022-09-09T16:54:12;0.97;;;0.50;;
944;SDS011;459;48.676;9.034;2022-09-09T16:56:39;1.33;;;0.60;;
944;SDS011;459;48.676;9.034;2022-09-09T16:59:10;1.17;;;0.60;;
944;SDS011;459;48.676;9.034;2022-09-09T17:01:36;1.87;;;0.60;;
944;SDS011;459;48.676;9.034;2022-09-09T17:04:03;0.80;;;0.40;;
944;SDS011;459;48.676;9.034;2022-09-09T17:06:29;1.00;;;0.50;;
944;SDS011;459;48.676;9.034;2022-09-09T17:08:54;1.90;;;0.60;;
944;SDS011;459;48.676;9.034;2022-09-09T17:11:20;0.70;;;0.50;;
944;SDS011;459;48.676;9.034;2022-09-09T17:13:46;1.53;;;0.67;;
944;SDS011;459;48.676;9.034;2022-09-09T17:16:11;1.60;;;0.87;;
944;SDS011;459;48.676;9.034;2022-09-09T17:18:37;1.90;;;0.90;;
944;SDS011;459;48.676;9.034;2022-09-09T17:21:03;1.30;;;0.60;;
944;SDS011;459;48.676;9.034;2022-09-09T17:23:29;2.20;;;0.90;;
944;SDS011;459;48.676;9.034;2022-09-09T17:25:58;0.80;;;0.60;;
944;SDS011;459;48.676;9.034;2022-09-09T17:28:23;2.90;;;1.13;;
944;SDS011;459;48.676;9.034;2022-09-09T17:30:52;1.50;;;0.63;;
944;SDS011;459;48.676;9.034;2022-09-09T17:33:17;0.70;;;0.50;;
944;SDS011;459;48.676;9.034;2022-09-09T17:35:43;3.40;;;1.00;;
944;SDS011;459;48.676;9.034;2022-09-09T17:38:08;1.80;;;0.77;;
944;SDS011;459;48.676;9.034;2022-09-09T17:40:34;2.07;;;1.83;;
944;SDS011;459;48.676;9.034;2022-09-09T17:42:59;2.20;;;0.80;;
944;SDS011;459;48.676;9.034;2022-09-09T17:45:24;2.17;;;0.80;;
944;SDS011;459;48.676;9.034;2022-09-09T17:47:50;1.00;;;0.70;;
944;SDS011;459;48.676;9.034;2022-09-09T17:50:15;0.80;;;0.63;;
944;SDS011;459;48.676;9.034;2022-09-09T17:52:40;0.93;;;0.63;;
944;SDS011;459;48.676;9.034;2022-09-09T17:55:06;1.13;;;0.60;;
944;SDS011;459;48.676;9.034;2022-09-09T17:57:31;1.03;;;0.90;;
944;SDS011;459;48.676;9.034;2022-09-09T17:59:56;0.90;;;0.50;;